Time;durP1;ratioP1;P1;durP2;ratioP2;P2;SDS_P1;SDS_P2;PMS_P1;PMS_P2;Temp;Humidity;BMP_temperature;BMP_pressure;BME280_temperature;BME280_humidity;BME280_pressure;Samples;Min_cycle;Max_cycle;Signal;HPM_P1;HPM_P2
2022/11/28 00:05:42;;;;;;;5.80;3.85;;;7.30;99.90;;;;;;20434309;28;20050;-41
2022/11/28 00:15:43;;;;;;;6.68;3.50;;;7.30;99.90;;;;;;20427790;28;20245;-42
2022/11/28 00:25:44;;;;;;;7.75;3.95;;;7.30;99.90;;;;;;20415963;28;20118;-41
2022/11/28 00:35:45;;;;;;;8.23;4.22;;;7.30;99.90;;;;;;20408701;28;20054;-42
2022/11/28 00:45:46;;;;;;;6.72;3.83;;;7.30;99.90;;;;;;20407130;28;20130;-42
2022/11/28 00:55:47;;;;;;;6.57;3.95;;;7.40;99.90;;;;;;20387298;28;20102;-42
2022/11/28 01:05:48;;;;;;;8.27;5.32;;;7.40;99.90;;;;;;20397701;28;20043;-42
2022/11/28 01:15:49;;;;;;;8.25;4.70;;;7.50;99.90;;;;;;20415298;28;20093;-42
2022/11/28 01:25:50;;;;;;;8.65;4.70;;;7.50;99.90;;;;;;20431481;28;20161;-43
2022/11/28 01:35:56;;;;;;;8.73;4.60;;;7.60;99.90;;;;;;20428330;28;20082;-42
2022/11/28 01:45:57;;;;;;;7.97;4.72;;;7.70;99.90;;;;;;20422735;28;20190;-43
2022/11/28 01:56:04;;;;;;;7.93;4.72;;;7.80;99.90;;;;;;20431111;28;21574;-43
2022/11/28 02:06:06;;;;;;;9.30;3.67;;;7.90;99.90;;;;;;20424671;28;20098;-43
2022/11/28 02:16:28;;;;;;;7.00;3.67;;;8.00;99.90;;;;;;20422149;28;20175;-42
2022/11/28 02:27:03;;;;;;;5.28;3.53;;;8.10;99.90;;;;;;20450232;28;20355;-43
2022/11/28 02:37:16;;;;;;;8.25;3.90;;;8.20;99.90;;;;;;20445062;28;21652;-41
2022/11/28 02:47:47;;;;;;;9.02;5.28;;;8.30;99.90;;;;;;20442609;28;20098;-42
2022/11/28 02:57:50;;;;;;;7.70;4.70;;;8.30;99.90;;;;;;20440194;28;20717;-43
2022/11/28 03:08:10;;;;;;;6.63;4.03;;;8.30;99.90;;;;;;20433239;28;20137;-43
2022/11/28 03:18:20;;;;;;;8.55;4.28;;;8.40;99.90;;;;;;20434420;28;20759;-43
2022/11/28 03:28:27;;;;;;;8.02;4.38;;;8.40;99.90;;;;;;20454821;28;20105;-43
2022/11/28 03:38:33;;;;;;;8.60;5.20;;;8.40;99.90;;;;;;20438270;28;20126;-43
2022/11/28 03:48:40;;;;;;;10.60;5.88;;;8.40;99.90;;;;;;20436870;28;20078;-44
2022/11/28 03:59:15;;;;;;;9.88;6.85;;;8.40;99.90;;;;;;20444473;28;20960;-43
2022/11/28 04:09:26;;;;;;;12.65;6.22;;;8.40;99.90;;;;;;20417423;28;20915;-43
2022/11/28 04:19:32;;;;;;;13.45;8.15;;;8.30;99.90;;;;;;20439007;28;20066;-42
2022/11/28 04:29:38;;;;;;;11.73;7.93;;;8.30;99.90;;;;;;20436848;28;20121;-43
2022/11/28 04:39:43;;;;;;;14.52;7.82;;;8.20;99.90;;;;;;20428232;28;20849;-43
2022/11/28 04:49:44;;;;;;;12.60;7.45;;;8.20;99.90;;;;;;20430461;28;20159;-43
2022/11/28 04:59:47;;;;;;;14.57;7.53;;;8.20;99.90;;;;;;20441928;28;20177;-42
2022/11/28 05:09:48;;;;;;;11.50;7.60;;;8.10;99.90;;;;;;20437492;28;20161;-42
2022/11/28 05:19:49;;;;;;;12.13;8.35;;;8.10;99.90;;;;;;20427506;28;20054;-43
2022/11/28 05:29:52;;;;;;;16.98;8.95;;;8.10;99.90;;;;;;20436003;28;20080;-43
2022/11/28 05:39:53;;;;;;;18.70;7.93;;;8.10;99.90;;;;;;20423877;28;20138;-42
2022/11/28 05:49:54;;;;;;;13.60;7.47;;;8.20;99.90;;;;;;20431161;28;20320;-42
2022/11/28 05:59:55;;;;;;;13.10;8.10;;;8.10;99.90;;;;;;20437267;28;20047;-42
2022/11/28 06:09:56;;;;;;;11.48;7.32;;;8.10;99.90;;;;;;20426404;28;20130;-43
2022/11/28 06:19:57;;;;;;;16.25;8.05;;;8.10;99.90;;;;;;20422442;28;20510;-43
2022/11/28 06:29:58;;;;;;;17.30;8.85;;;8.10;99.90;;;;;;20424541;28;20530;-43
2022/11/28 06:39:59;;;;;;;12.68;7.75;;;8.10;99.90;;;;;;20421977;28;20419;-44
2022/11/28 06:50:00;;;;;;;16.05;9.18;;;8.10;99.90;;;;;;20411414;28;20055;-43
2022/11/28 07:00:01;;;;;;;12.23;8.98;;;8.10;99.90;;;;;;20405587;28;20063;-43
2022/11/28 07:10:03;;;;;;;18.77;11.07;;;8.20;99.90;;;;;;20441938;28;20130;-44
2022/11/28 07:20:05;;;;;;;17.02;10.45;;;8.20;99.90;;;;;;20433776;28;20063;-43
2022/11/28 07:30:07;;;;;;;22.00;10.27;;;8.20;99.90;;;;;;20432671;28;20085;-44
2022/11/28 07:40:09;;;;;;;23.38;11.68;;;8.20;99.90;;;;;;20421683;28;20134;-42
2022/11/28 07:50:10;;;;;;;20.67;12.05;;;8.30;99.90;;;;;;20399049;28;20058;-43
2022/11/28 08:00:11;;;;;;;24.45;12.30;;;8.30;99.90;;;;;;20411029;28;20341;-44
2022/11/28 08:10:12;;;;;;;20.50;10.77;;;8.30;99.90;;;;;;20420021;28;20134;-43
2022/11/28 08:20:13;;;;;;;27.17;12.05;;;8.40;99.90;;;;;;20415284;28;20560;-43
2022/11/28 08:30:14;;;;;;;29.70;14.18;;;8.40;99.90;;;;;;20395872;28;20162;-43
2022/11/28 08:40:16;;;;;;;31.30;14.32;;;8.40;99.90;;;;;;20392175;28;20105;-44
2022/11/28 08:50:17;;;;;;;25.92;13.57;;;8.50;99.90;;;;;;20391083;28;20081;-43
2022/11/28 09:00:18;;;;;;;26.60;11.45;;;8.50;99.90;;;;;;20331655;28;20107;-43
2022/11/28 09:10:19;;;;;;;23.67;12.40;;;8.60;99.90;;;;;;20379900;28;20106;-44
2022/11/28 09:20:20;;;;;;;22.23;11.43;;;8.70;99.90;;;;;;20377077;28;20325;-44
2022/11/28 09:30:22;;;;;;;25.33;12.77;;;8.80;99.90;;;;;;20413059;28;20173;-43
2022/11/28 09:40:33;;;;;;;27.55;12.75;;;8.80;99.90;;;;;;20411544;28;20415;-44
2022/11/28 09:50:38;;;;;;;30.98;15.32;;;8.90;99.90;;;;;;20421515;28;20106;-44
2022/11/28 10:01:04;;;;;;;30.30;15.88;;;8.90;99.90;;;;;;20401909;28;20321;-44
2022/11/28 10:11:30;;;;;;;60.45;19.40;;;9.00;99.90;;;;;;20415788;28;20186;-44
2022/11/28 10:21:54;;;;;;;31.00;15.73;;;9.10;99.90;;;;;;20412774;28;20622;-44
2022/11/28 10:32:02;;;;;;;30.73;14.55;;;9.20;99.90;;;;;;20413672;28;20910;-44
2022/11/28 10:42:14;;;;;;;33.38;15.60;;;9.30;99.90;;;;;;20422502;28;20142;-43
2022/11/28 10:52:57;;;;;;;26.27;12.63;;;9.40;99.90;;;;;;20368277;28;20478;-44
2022/11/28 11:03:01;;;;;;;28.67;13.13;;;9.50;99.90;;;;;;20395188;28;22018;-43
2022/11/28 11:13:24;;;;;;;23.23;13.30;;;9.50;99.90;;;;;;20451350;28;20383;-44
2022/11/28 11:23:27;;;;;;;21.38;13.30;;;9.60;99.90;;;;;;20470416;28;20054;-44
2022/11/28 11:33:37;;;;;;;27.88;12.68;;;9.60;99.90;;;;;;20476269;28;20051;-43
2022/11/28 11:43:38;;;;;;;24.20;13.50;;;9.70;99.90;;;;;;20458451;28;20216;-43
2022/11/28 11:53:39;;;;;;;21.67;11.05;;;9.60;99.90;;;;;;20398420;28;20125;-43
2022/11/28 12:04:00;;;;;;;22.20;10.50;;;9.70;99.90;;;;;;20389133;28;20074;-43
2022/11/28 12:14:23;;;;;;;24.98;13.05;;;9.70;99.90;;;;;;20412220;28;20155;-44
2022/11/28 12:24:48;;;;;;;26.42;13.05;;;9.80;99.90;;;;;;20421496;28;20126;-44
2022/11/28 12:35:14;;;;;;;21.65;10.63;;;9.90;99.90;;;;;;20406357;28;21621;-43
2022/11/28 12:45:27;;;;;;;19.30;11.10;;;10.10;99.90;;;;;;20417074;28;20166;-43
2022/11/28 12:55:39;;;;;;;24.42;10.25;;;10.10;99.90;;;;;;20413322;28;20051;-44
2022/11/28 13:05:45;;;;;;;24.52;11.60;;;10.10;99.90;;;;;;20396278;28;20308;-43
2022/11/28 13:15:59;;;;;;;15.27;10.17;;;10.10;99.90;;;;;;20413319;28;20858;-45
2022/11/28 13:26:15;;;;;;;25.58;10.77;;;10.10;99.90;;;;;;20435284;28;20503;-44
2022/11/28 13:36:53;;;;;;;16.63;8.80;;;10.10;99.90;;;;;;20433362;28;20621;-44
2022/11/28 13:46:54;;;;;;;23.10;11.70;;;10.10;99.90;;;;;;20406101;28;20782;-43
2022/11/28 13:57:18;;;;;;;16.67;10.15;;;10.20;99.90;;;;;;20401622;28;20098;-44
2022/11/28 14:07:31;;;;;;;24.25;11.73;;;10.20;99.90;;;;;;20396095;28;20137;-44
2022/11/28 14:17:53;;;;;;;19.38;10.73;;;10.30;99.90;;;;;;20393620;28;20046;-44
2022/11/28 14:27:58;;;;;;;18.00;9.45;;;10.30;99.90;;;;;;20393940;28;20891;-44
2022/11/28 14:37:59;;;;;;;22.08;13.07;;;10.30;99.90;;;;;;20402580;28;20126;-45
2022/11/28 14:48:22;;;;;;;14.15;8.95;;;10.30;99.90;;;;;;20384513;28;20055;-43
2022/11/28 14:58:23;;;;;;;32.03;12.85;;;10.30;99.90;;;;;;20382951;28;20101;-43
2022/11/28 15:08:33;;;;;;;17.98;9.63;;;10.30;99.90;;;;;;20376737;28;20494;-43
2022/11/28 15:18:34;;;;;;;22.55;9.98;;;10.20;99.90;;;;;;20409180;28;20138;-44
2022/11/28 15:28:36;;;;;;;21.13;10.45;;;10.20;99.90;;;;;;20390782;28;20051;-43
2022/11/28 15:38:40;;;;;;;14.48;10.10;;;10.20;99.90;;;;;;20427470;28;20193;-44
2022/11/28 15:48:51;;;;;;;16.60;10.40;;;10.10;99.90;;;;;;20416719;28;20435;-43
2022/11/28 15:58:52;;;;;;;20.40;10.82;;;10.10;99.90;;;;;;20357367;28;20337;-45
2022/11/28 16:08:56;;;;;;;14.75;7.90;;;10.00;99.90;;;;;;20403636;28;20161;-43
2022/11/28 16:19:07;;;;;;;19.52;10.75;;;10.00;99.90;;;;;;20405579;28;20254;-44
2022/11/28 16:29:08;;;;;;;21.48;8.90;;;10.00;99.90;;;;;;20419900;28;20555;-43
2022/11/28 16:39:09;;;;;;;19.85;10.20;;;9.90;99.90;;;;;;20387169;28;20169;-43
2022/11/28 16:49:37;;;;;;;10.38;6.75;;;9.90;99.90;;;;;;20403630;28;20051;-43
2022/11/28 16:59:38;;;;;;;14.60;8.40;;;9.80;99.90;;;;;;20436309;28;20554;-44
2022/11/28 17:09:40;;;;;;;16.95;8.85;;;9.80;99.90;;;;;;20426788;28;21413;-43
2022/11/28 17:19:41;;;;;;;19.17;9.73;;;9.70;99.90;;;;;;20393302;28;20170;-43
2022/11/28 17:29:43;;;;;;;18.02;9.13;;;9.60;99.90;;;;;;20405726;28;20134;-44
2022/11/28 17:40:31;;;;;;;14.82;9.13;;;9.50;99.90;;;;;;20380751;28;20782;-44
2022/11/28 17:50:05;;;;;;;17.80;10.75;;;9.40;99.90;;;;;;20381989;28;20130;-43
2022/11/28 18:00:08;;;;;;;16.50;9.32;;;9.30;99.90;;;;;;20389745;28;20257;-44
2022/11/28 18:10:09;;;;;;;17.15;8.57;;;9.30;99.90;;;;;;20391720;28;20713;-44
2022/11/28 18:20:10;;;;;;;17.30;10.25;;;9.30;99.90;;;;;;20432087;28;20992;-42
2022/11/28 18:30:12;;;;;;;18.65;9.68;;;9.10;99.90;;;;;;20409270;28;20460;-44
2022/11/28 18:40:13;;;;;;;25.38;11.55;;;9.00;99.90;;;;;;20414691;28;20133;-43
2022/11/28 18:50:14;;;;;;;12.82;8.65;;;9.00;99.90;;;;;;20409556;28;20166;-43
2022/11/28 19:00:15;;;;;;;16.65;9.35;;;8.90;99.90;;;;;;20393745;28;20574;-43
2022/11/28 19:10:17;;;;;;;19.80;8.80;;;8.80;99.90;;;;;;20420061;28;20570;-43
2022/11/28 19:20:18;;;;;;;18.02;9.52;;;8.80;99.90;;;;;;20426073;28;20765;-43
2022/11/28 19:30:19;;;;;;;21.77;12.30;;;8.70;99.90;;;;;;20445156;28;20090;-43
2022/11/28 19:40:20;;;;;;;22.35;12.38;;;8.70;99.90;;;;;;20427500;28;20087;-43
2022/11/28 19:50:21;;;;;;;31.52;13.13;;;8.60;99.90;;;;;;20439829;28;20051;-44
2022/11/28 20:00:22;;;;;;;38.60;18.92;;;8.60;99.90;;;;;;20447977;28;20153;-44
2022/11/28 20:10:24;;;;;;;30.80;16.38;;;8.70;99.90;;;;;;20432706;28;20280;-44
2022/11/28 20:20:25;;;;;;;28.85;15.48;;;8.70;99.90;;;;;;20426856;28;20524;-45
2022/11/28 20:30:26;;;;;;;43.63;21.10;;;8.70;99.90;;;;;;20434134;28;20227;-44
2022/11/28 20:40:27;;;;;;;45.83;21.45;;;8.70;99.90;;;;;;20436913;28;20572;-43
2022/11/28 20:50:28;;;;;;;28.02;14.73;;;8.70;99.90;;;;;;20405250;28;20533;-45
2022/11/28 21:00:29;;;;;;;25.38;13.73;;;8.70;99.90;;;;;;20438686;28;20458;-44
2022/11/28 21:10:32;;;;;;;33.83;17.00;;;8.80;99.90;;;;;;20444885;28;20051;-43
2022/11/28 21:20:33;;;;;;;31.65;16.05;;;8.90;99.90;;;;;;20439410;28;20133;-44
2022/11/28 21:30:52;;;;;;;34.28;16.90;;;8.80;99.90;;;;;;20441950;28;20087;-43
2022/11/28 21:40:54;;;;;;;26.95;14.85;;;8.70;99.90;;;;;;20454901;28;20279;-44
2022/11/28 21:50:55;;;;;;;25.65;15.40;;;8.70;99.90;;;;;;20460815;28;20081;-44
2022/11/28 22:00:57;;;;;;;28.10;13.98;;;8.70;99.90;;;;;;20440278;28;20066;-43
2022/11/28 22:11:03;;;;;;;38.08;17.02;;;8.80;99.90;;;;;;20445710;28;20054;-44
2022/11/28 22:21:06;;;;;;;29.55;14.20;;;8.70;99.90;;;;;;20448457;28;20027;-44
2022/11/28 22:31:07;;;;;;;22.23;14.65;;;8.80;99.90;;;;;;20453248;28;20133;-45
2022/11/28 22:41:10;;;;;;;22.73;14.93;;;8.80;99.90;;;;;;20461060;28;20087;-44
2022/11/28 22:51:15;;;;;;;28.33;13.93;;;8.70;99.90;;;;;;20469471;28;20454;-44
2022/11/28 23:01:22;;;;;;;27.88;15.23;;;8.70;99.90;;;;;;20463271;28;20059;-44
2022/11/28 23:11:26;;;;;;;21.27;12.27;;;8.70;99.90;;;;;;20437030;28;20202;-44
2022/11/28 23:21:30;;;;;;;26.65;14.00;;;8.60;99.90;;;;;;20457655;28;20063;-44
2022/11/28 23:31:33;;;;;;;17.55;10.70;;;8.60;99.90;;;;;;20450022;28;20185;-44
2022/11/28 23:41:34;;;;;;;20.70;11.13;;;8.60;99.90;;;;;;20463038;28;20137;-44
2022/11/28 23:51:35;;;;;;;29.58;15.68;;;8.60;99.90;;;;;;20456541;28;20500;-44
